sensor_id;sensor_type;location;lat;lon;timestamp;P1;durP1;ratioP1;P2;durP2;ratioP2
18162;SDS011;9206;50.994;4.538;2023-10-31T00:13:21;19.20;;;16.37;;
18162;SDS011;9206;50.994;4.538;2023-10-31T00:19:09;25.27;;;17.70;;
18162;SDS011;9206;50.994;4.538;2023-10-31T00:22:03;29.53;;;18.03;;
18162;SDS011;9206;50.994;4.538;2023-10-31T00:24:52;26.83;;;17.53;;
18162;SDS011;9206;50.994;4.538;2023-10-31T00:30:44;28.30;;;18.20;;
18162;SDS011;9206;50.994;4.538;2023-10-31T00:33:57;34.77;;;18.63;;
18162;SDS011;9206;50.994;4.538;2023-10-31T00:36:46;25.97;;;18.23;;
18162;SDS011;9206;50.994;4.538;2023-10-31T00:39:33;27.70;;;18.37;;
18162;SDS011;9206;50.994;4.538;2023-10-31T00:42:31;29.00;;;18.23;;
18162;SDS011;9206;50.994;4.538;2023-10-31T00:45:18;30.43;;;18.20;;
18162;SDS011;9206;50.994;4.538;2023-10-31T00:48:07;26.63;;;17.93;;
18162;SDS011;9206;50.994;4.538;2023-10-31T00:53:52;20.90;;;16.67;;
18162;SDS011;9206;50.994;4.538;2023-10-31T00:56:45;25.67;;;17.57;;
18162;SDS011;9206;50.994;4.538;2023-10-31T00:59:45;26.47;;;16.80;;
18162;SDS011;9206;50.994;4.538;2023-10-31T01:02:32;19.67;;;15.80;;
18162;SDS011;9206;50.994;4.538;2023-10-31T01:05:23;24.97;;;15.97;;
18162;SDS011;9206;50.994;4.538;2023-10-31T01:08:16;19.33;;;15.33;;
18162;SDS011;9206;50.994;4.538;2023-10-31T01:11:03;20.30;;;14.73;;
18162;SDS011;9206;50.994;4.538;2023-10-31T01:13:55;14.20;;;12.80;;
18162;SDS011;9206;50.994;4.538;2023-10-31T01:16:43;15.70;;;12.93;;
18162;SDS011;9206;50.994;4.538;2023-10-31T01:19:31;14.60;;;12.40;;
18162;SDS011;9206;50.994;4.538;2023-10-31T01:22:21;14.50;;;11.33;;
18162;SDS011;9206;50.994;4.538;2023-10-31T01:25:09;12.00;;;10.90;;
18162;SDS011;9206;50.994;4.538;2023-10-31T01:27:56;12.63;;;11.03;;
18162;SDS011;9206;50.994;4.538;2023-10-31T01:31:08;12.00;;;10.07;;
18162;SDS011;9206;50.994;4.538;2023-10-31T01:33:58;11.47;;;10.40;;
18162;SDS011;9206;50.994;4.538;2023-10-31T01:36:47;11.87;;;10.70;;
18162;SDS011;9206;50.994;4.538;2023-10-31T01:39:35;12.83;;;10.37;;
18162;SDS011;9206;50.994;4.538;2023-10-31T01:42:29;11.33;;;10.20;;
18162;SDS011;9206;50.994;4.538;2023-10-31T01:45:19;11.53;;;10.37;;
18162;SDS011;9206;50.994;4.538;2023-10-31T01:48:06;10.33;;;9.40;;
18162;SDS011;9206;50.994;4.538;2023-10-31T01:50:55;9.93;;;9.10;;
18162;SDS011;9206;50.994;4.538;2023-10-31T01:53:55;13.03;;;9.00;;
18162;SDS011;9206;50.994;4.538;2023-10-31T01:56:46;9.17;;;8.47;;
18162;SDS011;9206;50.994;4.538;2023-10-31T01:59:51;11.37;;;9.53;;
18162;SDS011;9206;50.994;4.538;2023-10-31T02:02:41;9.37;;;8.63;;
18162;SDS011;9206;50.994;4.538;2023-10-31T02:05:31;9.17;;;8.43;;
18162;SDS011;9206;50.994;4.538;2023-10-31T02:08:24;9.47;;;8.53;;
18162;SDS011;9206;50.994;4.538;2023-10-31T02:11:12;10.20;;;9.10;;
18162;SDS011;9206;50.994;4.538;2023-10-31T02:13:47;9.67;;;8.50;;
18162;SDS011;9206;50.994;4.538;2023-10-31T02:16:35;10.50;;;9.30;;
18162;SDS011;9206;50.994;4.538;2023-10-31T02:19:22;10.93;;;8.63;;
18162;SDS011;9206;50.994;4.538;2023-10-31T02:22:11;8.83;;;8.13;;
18162;SDS011;9206;50.994;4.538;2023-10-31T02:24:58;9.87;;;8.97;;
18162;SDS011;9206;50.994;4.538;2023-10-31T02:27:45;9.80;;;8.90;;
18162;SDS011;9206;50.994;4.538;2023-10-31T02:30:33;9.00;;;8.10;;
18162;SDS011;9206;50.994;4.538;2023-10-31T02:33:21;9.17;;;8.27;;
18162;SDS011;9206;50.994;4.538;2023-10-31T02:36:08;9.57;;;8.73;;
18162;SDS011;9206;50.994;4.538;2023-10-31T02:38:57;9.77;;;9.07;;
18162;SDS011;9206;50.994;4.538;2023-10-31T02:41:44;9.07;;;8.43;;
18162;SDS011;9206;50.994;4.538;2023-10-31T02:44:32;9.33;;;8.47;;
18162;SDS011;9206;50.994;4.538;2023-10-31T02:47:19;9.37;;;8.43;;
18162;SDS011;9206;50.994;4.538;2023-10-31T02:50:07;9.60;;;8.90;;
18162;SDS011;9206;50.994;4.538;2023-10-31T02:52:54;9.83;;;8.13;;
18162;SDS011;9206;50.994;4.538;2023-10-31T02:55:43;9.90;;;8.97;;
18162;SDS011;9206;50.994;4.538;2023-10-31T02:58:31;11.70;;;8.70;;
18162;SDS011;9206;50.994;4.538;2023-10-31T03:01:19;9.47;;;8.27;;
18162;SDS011;9206;50.994;4.538;2023-10-31T03:04:06;10.80;;;9.17;;
18162;SDS011;9206;50.994;4.538;2023-10-31T03:06:53;10.00;;;9.20;;
18162;SDS011;9206;50.994;4.538;2023-10-31T03:09:41;10.87;;;9.77;;
18162;SDS011;9206;50.994;4.538;2023-10-31T03:12:29;13.47;;;9.90;;
18162;SDS011;9206;50.994;4.538;2023-10-31T03:15:20;11.00;;;9.90;;
18162;SDS011;9206;50.994;4.538;2023-10-31T03:21:02;11.40;;;10.40;;
18162;SDS011;9206;50.994;4.538;2023-10-31T03:26:46;11.57;;;10.37;;
18162;SDS011;9206;50.994;4.538;2023-10-31T03:29:35;11.17;;;10.10;;
18162;SDS011;9206;50.994;4.538;2023-10-31T03:32:22;12.83;;;10.90;;
18162;SDS011;9206;50.994;4.538;2023-10-31T03:35:10;11.03;;;10.03;;
18162;SDS011;9206;50.994;4.538;2023-10-31T03:37:58;11.60;;;10.30;;
18162;SDS011;9206;50.994;4.538;2023-10-31T03:40:45;10.57;;;9.57;;
18162;SDS011;9206;50.994;4.538;2023-10-31T03:43:32;10.17;;;9.13;;
18162;SDS011;9206;50.994;4.538;2023-10-31T03:46:21;12.67;;;10.17;;
18162;SDS011;9206;50.994;4.538;2023-10-31T03:49:08;8.77;;;8.13;;
18162;SDS011;9206;50.994;4.538;2023-10-31T03:51:56;8.40;;;7.90;;
18162;SDS011;9206;50.994;4.538;2023-10-31T03:54:43;9.70;;;7.63;;
18162;SDS011;9206;50.994;4.538;2023-10-31T03:57:30;9.17;;;8.30;;
18162;SDS011;9206;50.994;4.538;2023-10-31T04:00:18;8.77;;;7.87;;
18162;SDS011;9206;50.994;4.538;2023-10-31T04:03:06;8.70;;;7.47;;
18162;SDS011;9206;50.994;4.538;2023-10-31T04:05:54;12.33;;;7.47;;
18162;SDS011;9206;50.994;4.538;2023-10-31T04:08:41;8.70;;;7.63;;
18162;SDS011;9206;50.994;4.538;2023-10-31T04:11:29;7.67;;;7.10;;
18162;SDS011;9206;50.994;4.538;2023-10-31T04:14:16;7.90;;;7.20;;
18162;SDS011;9206;50.994;4.538;2023-10-31T04:17:03;8.47;;;7.87;;
18162;SDS011;9206;50.994;4.538;2023-10-31T04:19:58;8.70;;;8.00;;
18162;SDS011;9206;50.994;4.538;2023-10-31T04:22:45;9.37;;;8.67;;
18162;SDS011;9206;50.994;4.538;2023-10-31T04:25:33;9.33;;;8.63;;
18162;SDS011;9206;50.994;4.538;2023-10-31T04:28:20;9.87;;;8.87;;
18162;SDS011;9206;50.994;4.538;2023-10-31T04:31:07;8.83;;;8.00;;
18162;SDS011;9206;50.994;4.538;2023-10-31T04:33:55;8.73;;;7.97;;
18162;SDS011;9206;50.994;4.538;2023-10-31T04:36:43;11.83;;;8.27;;
18162;SDS011;9206;50.994;4.538;2023-10-31T04:39:30;9.17;;;8.30;;
18162;SDS011;9206;50.994;4.538;2023-10-31T04:42:18;7.27;;;6.87;;
18162;SDS011;9206;50.994;4.538;2023-10-31T04:45:06;8.83;;;8.10;;
18162;SDS011;9206;50.994;4.538;2023-10-31T04:47:54;8.30;;;7.57;;
18162;SDS011;9206;50.994;4.538;2023-10-31T04:50:41;8.73;;;8.00;;
18162;SDS011;9206;50.994;4.538;2023-10-31T04:53:30;12.97;;;8.70;;
18162;SDS011;9206;50.994;4.538;2023-10-31T04:56:19;10.20;;;9.50;;
18162;SDS011;9206;50.994;4.538;2023-10-31T04:59:07;10.17;;;9.37;;
18162;SDS011;9206;50.994;4.538;2023-10-31T05:01:54;10.37;;;9.57;;
18162;SDS011;9206;50.994;4.538;2023-10-31T05:04:41;13.63;;;10.00;;
18162;SDS011;9206;50.994;4.538;2023-10-31T05:07:29;12.17;;;11.03;;
18162;SDS011;9206;50.994;4.538;2023-10-31T05:10:19;15.67;;;12.20;;
18162;SDS011;9206;50.994;4.538;2023-10-31T05:13:06;17.77;;;13.83;;
18162;SDS011;9206;50.994;4.538;2023-10-31T05:15:55;14.80;;;13.03;;
18162;SDS011;9206;50.994;4.538;2023-10-31T05:18:43;17.67;;;14.50;;
18162;SDS011;9206;50.994;4.538;2023-10-31T05:21:31;16.73;;;14.93;;
18162;SDS011;9206;50.994;4.538;2023-10-31T05:24:18;20.43;;;15.27;;
18162;SDS011;9206;50.994;4.538;2023-10-31T05:27:07;18.50;;;15.23;;
18162;SDS011;9206;50.994;4.538;2023-10-31T05:29:55;21.87;;;15.73;;
18162;SDS011;9206;50.994;4.538;2023-10-31T05:32:42;20.37;;;15.30;;
18162;SDS011;9206;50.994;4.538;2023-10-31T05:35:29;19.20;;;14.43;;
18162;SDS011;9206;50.994;4.538;2023-10-31T05:38:17;15.23;;;13.13;;
18162;SDS011;9206;50.994;4.538;2023-10-31T05:41:06;18.13;;;15.07;;
18162;SDS011;9206;50.994;4.538;2023-10-31T05:43:56;16.70;;;14.97;;
18162;SDS011;9206;50.994;4.538;2023-10-31T05:46:43;19.90;;;14.70;;
18162;SDS011;9206;50.994;4.538;2023-10-31T05:49:31;17.90;;;14.67;;
18162;SDS011;9206;50.994;4.538;2023-10-31T05:52:18;17.80;;;15.90;;
18162;SDS011;9206;50.994;4.538;2023-10-31T05:55:06;20.57;;;16.40;;
18162;SDS011;9206;50.994;4.538;2023-10-31T05:57:54;20.63;;;15.50;;
18162;SDS011;9206;50.994;4.538;2023-10-31T06:00:43;19.63;;;16.60;;
18162;SDS011;9206;50.994;4.538;2023-10-31T06:03:30;21.40;;;15.10;;
18162;SDS011;9206;50.994;4.538;2023-10-31T06:06:18;18.63;;;16.43;;
18162;SDS011;9206;50.994;4.538;2023-10-31T06:09:05;21.30;;;15.87;;
18162;SDS011;9206;50.994;4.538;2023-10-31T06:11:54;19.07;;;15.07;;
18162;SDS011;9206;50.994;4.538;2023-10-31T06:14:41;20.30;;;15.97;;
18162;SDS011;9206;50.994;4.538;2023-10-31T06:17:30;21.20;;;15.70;;
18162;SDS011;9206;50.994;4.538;2023-10-31T06:20:19;21.27;;;15.97;;
18162;SDS011;9206;50.994;4.538;2023-10-31T06:26:17;19.80;;;15.10;;
18162;SDS011;9206;50.994;4.538;2023-10-31T06:29:07;18.77;;;15.00;;
18162;SDS011;9206;50.994;4.538;2023-10-31T06:31:58;18.03;;;15.13;;
18162;SDS011;9206;50.994;4.538;2023-10-31T06:34:48;20.77;;;15.50;;
18162;SDS011;9206;50.994;4.538;2023-10-31T06:37:35;22.93;;;14.70;;
18162;SDS011;9206;50.994;4.538;2023-10-31T06:40:23;17.17;;;15.07;;
18162;SDS011;9206;50.994;4.538;2023-10-31T06:43:10;22.63;;;15.70;;
18162;SDS011;9206;50.994;4.538;2023-10-31T06:45:58;16.73;;;14.97;;
18162;SDS011;9206;50.994;4.538;2023-10-31T06:48:46;20.47;;;15.73;;
18162;SDS011;9206;50.994;4.538;2023-10-31T06:51:34;21.53;;;15.57;;
18162;SDS011;9206;50.994;4.538;2023-10-31T06:54:22;20.47;;;15.80;;
18162;SDS011;9206;50.994;4.538;2023-10-31T06:57:09;19.23;;;14.87;;
18162;SDS011;9206;50.994;4.538;2023-10-31T06:59:56;20.83;;;16.23;;
18162;SDS011;9206;50.994;4.538;2023-10-31T07:02:44;20.87;;;15.43;;
18162;SDS011;9206;50.994;4.538;2023-10-31T07:05:33;21.70;;;15.97;;
18162;SDS011;9206;50.994;4.538;2023-10-31T07:08:21;22.83;;;16.23;;
18162;SDS011;9206;50.994;4.538;2023-10-31T07:11:09;17.30;;;15.33;;
18162;SDS011;9206;50.994;4.538;2023-10-31T07:13:57;24.83;;;16.03;;
18162;SDS011;9206;50.994;4.538;2023-10-31T07:16:44;20.60;;;15.20;;
18162;SDS011;9206;50.994;4.538;2023-10-31T07:19:32;20.80;;;15.27;;
18162;SDS011;9206;50.994;4.538;2023-10-31T07:22:19;20.10;;;15.73;;
18162;SDS011;9206;50.994;4.538;2023-10-31T07:25:09;20.53;;;14.20;;
18162;SDS011;9206;50.994;4.538;2023-10-31T07:28:02;19.50;;;14.30;;
18162;SDS011;9206;50.994;4.538;2023-10-31T07:30:50;21.93;;;14.37;;
18162;SDS011;9206;50.994;4.538;2023-10-31T07:33:37;17.03;;;13.90;;
18162;SDS011;9206;50.994;4.538;2023-10-31T07:36:24;14.47;;;13.17;;
18162;SDS011;9206;50.994;4.538;2023-10-31T07:39:12;14.43;;;13.03;;
18162;SDS011;9206;50.994;4.538;2023-10-31T07:42:01;17.53;;;13.20;;
18162;SDS011;9206;50.994;4.538;2023-10-31T07:44:48;14.77;;;13.23;;
18162;SDS011;9206;50.994;4.538;2023-10-31T07:47:36;15.47;;;12.53;;
18162;SDS011;9206;50.994;4.538;2023-10-31T07:50:23;13.03;;;11.53;;
18162;SDS011;9206;50.994;4.538;2023-10-31T07:53:11;12.07;;;11.03;;
18162;SDS011;9206;50.994;4.538;2023-10-31T07:55:58;11.77;;;10.60;;
18162;SDS011;9206;50.994;4.538;2023-10-31T07:58:47;12.40;;;10.27;;
18162;SDS011;9206;50.994;4.538;2023-10-31T08:01:34;10.57;;;9.67;;
18162;SDS011;9206;50.994;4.538;2023-10-31T08:04:21;10.80;;;9.70;;
18162;SDS011;9206;50.994;4.538;2023-10-31T08:07:09;9.47;;;8.77;;
18162;SDS011;9206;50.994;4.538;2023-10-31T08:09:56;9.37;;;8.47;;
18162;SDS011;9206;50.994;4.538;2023-10-31T08:15:35;7.73;;;7.10;;
18162;SDS011;9206;50.994;4.538;2023-10-31T08:18:23;8.20;;;7.50;;
18162;SDS011;9206;50.994;4.538;2023-10-31T08:21:11;9.47;;;8.07;;
18162;SDS011;9206;50.994;4.538;2023-10-31T08:23:59;8.10;;;7.33;;
18162;SDS011;9206;50.994;4.538;2023-10-31T08:26:46;7.63;;;7.03;;
18162;SDS011;9206;50.994;4.538;2023-10-31T08:29:33;10.47;;;7.47;;
18162;SDS011;9206;50.994;4.538;2023-10-31T08:32:22;9.93;;;6.70;;
18162;SDS011;9206;50.994;4.538;2023-10-31T08:35:10;7.93;;;7.20;;
18162;SDS011;9206;50.994;4.538;2023-10-31T08:37:57;6.30;;;5.93;;
18162;SDS011;9206;50.994;4.538;2023-10-31T08:40:45;6.50;;;6.10;;
18162;SDS011;9206;50.994;4.538;2023-10-31T08:49:20;7.93;;;5.83;;
18162;SDS011;9206;50.994;4.538;2023-10-31T08:52:08;5.90;;;5.60;;
18162;SDS011;9206;50.994;4.538;2023-10-31T08:55:01;5.63;;;5.13;;
18162;SDS011;9206;50.994;4.538;2023-10-31T08:57:49;9.77;;;5.87;;
18162;SDS011;9206;50.994;4.538;2023-10-31T09:00:43;5.30;;;4.90;;
18162;SDS011;9206;50.994;4.538;2023-10-31T09:03:30;5.57;;;5.13;;
18162;SDS011;9206;50.994;4.538;2023-10-31T09:06:19;8.53;;;5.77;;
18162;SDS011;9206;50.994;4.538;2023-10-31T09:09:06;5.30;;;4.90;;
18162;SDS011;9206;50.994;4.538;2023-10-31T09:12:01;5.50;;;4.57;;
18162;SDS011;9206;50.994;4.538;2023-10-31T09:14:49;4.87;;;4.57;;
18162;SDS011;9206;50.994;4.538;2023-10-31T09:17:37;5.43;;;4.93;;
18162;SDS011;9206;50.994;4.538;2023-10-31T09:20:24;4.43;;;4.13;;
18162;SDS011;9206;50.994;4.538;2023-10-31T09:23:13;4.73;;;4.33;;
18162;SDS011;9206;50.994;4.538;2023-10-31T09:26:00;6.60;;;3.87;;
18162;SDS011;9206;50.994;4.538;2023-10-31T09:28:48;5.00;;;4.07;;
18162;SDS011;9206;50.994;4.538;2023-10-31T09:31:43;4.77;;;3.73;;
18162;SDS011;9206;50.994;4.538;2023-10-31T09:34:36;4.70;;;3.57;;
18162;SDS011;9206;50.994;4.538;2023-10-31T09:37:29;3.97;;;3.57;;
18162;SDS011;9206;50.994;4.538;2023-10-31T09:40:21;3.77;;;3.47;;
18162;SDS011;9206;50.994;4.538;2023-10-31T09:43:09;4.70;;;3.03;;
18162;SDS011;9206;50.994;4.538;2023-10-31T09:45:59;3.53;;;3.23;;
18162;SDS011;9206;50.994;4.538;2023-10-31T09:48:49;3.13;;;2.63;;
18162;SDS011;9206;50.994;4.538;2023-10-31T09:51:42;3.53;;;3.22;;
18162;SDS011;9206;50.994;4.538;2023-10-31T09:54:33;4.70;;;3.40;;
18162;SDS011;9206;50.994;4.538;2023-10-31T09:57:25;3.55;;;2.90;;
18162;SDS011;9206;50.994;4.538;2023-10-31T10:00:18;4.85;;;3.08;;
18162;SDS011;9206;50.994;4.538;2023-10-31T10:03:06;6.25;;;2.92;;
18162;SDS011;9206;50.994;4.538;2023-10-31T10:06:01;9.23;;;2.80;;
18162;SDS011;9206;50.994;4.538;2023-10-31T10:08:49;4.43;;;2.80;;
18162;SDS011;9206;50.994;4.538;2023-10-31T10:11:36;3.47;;;2.90;;
18162;SDS011;9206;50.994;4.538;2023-10-31T10:14:28;5.90;;;2.83;;
18162;SDS011;9206;50.994;4.538;2023-10-31T10:17:20;5.50;;;3.17;;
18162;SDS011;9206;50.994;4.538;2023-10-31T10:23:20;4.20;;;3.13;;
18162;SDS011;9206;50.994;4.538;2023-10-31T10:26:11;3.57;;;2.90;;
18162;SDS011;9206;50.994;4.538;2023-10-31T10:29:01;6.80;;;3.00;;
18162;SDS011;9206;50.994;4.538;2023-10-31T10:31:58;3.90;;;3.00;;
18162;SDS011;9206;50.994;4.538;2023-10-31T10:34:46;6.07;;;3.50;;
18162;SDS011;9206;50.994;4.538;2023-10-31T10:37:35;4.93;;;3.30;;
18162;SDS011;9206;50.994;4.538;2023-10-31T10:40:31;6.43;;;4.10;;
18162;SDS011;9206;50.994;4.538;2023-10-31T10:43:20;8.20;;;3.67;;
18162;SDS011;9206;50.994;4.538;2023-10-31T10:46:09;3.93;;;3.53;;
18162;SDS011;9206;50.994;4.538;2023-10-31T10:49:03;6.47;;;3.13;;
18162;SDS011;9206;50.994;4.538;2023-10-31T10:51:58;8.70;;;3.50;;
18162;SDS011;9206;50.994;4.538;2023-10-31T10:57:46;6.13;;;3.80;;
18162;SDS011;9206;50.994;4.538;2023-10-31T11:00:40;5.67;;;3.50;;
18162;SDS011;9206;50.994;4.538;2023-10-31T11:03:28;5.40;;;3.13;;
18162;SDS011;9206;50.994;4.538;2023-10-31T11:06:18;4.70;;;3.13;;
18162;SDS011;9206;50.994;4.538;2023-10-31T11:09:06;10.37;;;3.73;;
18162;SDS011;9206;50.994;4.538;2023-10-31T11:11:55;12.90;;;3.90;;
18162;SDS011;9206;50.994;4.538;2023-10-31T11:14:44;6.17;;;3.20;;
18162;SDS011;9206;50.994;4.538;2023-10-31T11:17:33;6.57;;;3.10;;
18162;SDS011;9206;50.994;4.538;2023-10-31T11:20:23;6.47;;;2.90;;
18162;SDS011;9206;50.994;4.538;2023-10-31T11:23:15;3.27;;;2.90;;
18162;SDS011;9206;50.994;4.538;2023-10-31T11:26:08;5.43;;;3.10;;
18162;SDS011;9206;50.994;4.538;2023-10-31T11:29:07;6.40;;;2.70;;
18162;SDS011;9206;50.994;4.538;2023-10-31T11:31:57;6.23;;;3.37;;
18162;SDS011;9206;50.994;4.538;2023-10-31T11:34:48;6.60;;;3.13;;
18162;SDS011;9206;50.994;4.538;2023-10-31T11:37:38;4.40;;;2.87;;
18162;SDS011;9206;50.994;4.538;2023-10-31T11:40:34;5.10;;;2.80;;
18162;SDS011;9206;50.994;4.538;2023-10-31T11:43:22;6.13;;;3.37;;
18162;SDS011;9206;50.994;4.538;2023-10-31T11:46:17;8.57;;;3.67;;
18162;SDS011;9206;50.994;4.538;2023-10-31T11:49:08;6.60;;;3.77;;
18162;SDS011;9206;50.994;4.538;2023-10-31T11:51:57;11.10;;;5.40;;
18162;SDS011;9206;50.994;4.538;2023-10-31T11:54:46;9.60;;;4.73;;
18162;SDS011;9206;50.994;4.538;2023-10-31T12:00:26;12.37;;;7.93;;
18162;SDS011;9206;50.994;4.538;2023-10-31T12:03:19;11.00;;;8.30;;
18162;SDS011;9206;50.994;4.538;2023-10-31T12:06:10;10.37;;;8.83;;
18162;SDS011;9206;50.994;4.538;2023-10-31T12:09:04;18.00;;;9.13;;
18162;SDS011;9206;50.994;4.538;2023-10-31T12:11:57;12.27;;;8.13;;
18162;SDS011;9206;50.994;4.538;2023-10-31T12:14:48;13.60;;;9.37;;
18162;SDS011;9206;50.994;4.538;2023-10-31T12:17:38;15.00;;;8.63;;
18162;SDS011;9206;50.994;4.538;2023-10-31T12:20:31;15.60;;;8.83;;
18162;SDS011;9206;50.994;4.538;2023-10-31T12:26:20;15.70;;;8.90;;
18162;SDS011;9206;50.994;4.538;2023-10-31T12:29:14;13.67;;;8.43;;
18162;SDS011;9206;50.994;4.538;2023-10-31T12:32:05;12.53;;;8.30;;
18162;SDS011;9206;50.994;4.538;2023-10-31T12:34:59;9.10;;;7.43;;
18162;SDS011;9206;50.994;4.538;2023-10-31T12:37:47;13.07;;;7.77;;
18162;SDS011;9206;50.994;4.538;2023-10-31T12:43:26;6.77;;;5.30;;
18162;SDS011;9206;50.994;4.538;2023-10-31T12:46:25;7.07;;;5.50;;
18162;SDS011;9206;50.994;4.538;2023-10-31T12:49:22;6.20;;;5.70;;
18162;SDS011;9206;50.994;4.538;2023-10-31T12:52:17;9.03;;;5.77;;
18162;SDS011;9206;50.994;4.538;2023-10-31T12:55:11;6.43;;;5.73;;
18162;SDS011;9206;50.994;4.538;2023-10-31T12:58:07;7.40;;;5.33;;
18162;SDS011;9206;50.994;4.538;2023-10-31T13:01:10;9.97;;;5.17;;
18162;SDS011;9206;50.994;4.538;2023-10-31T13:03:59;6.83;;;5.17;;
18162;SDS011;9206;50.994;4.538;2023-10-31T13:06:58;7.47;;;5.93;;
18162;SDS011;9206;50.994;4.538;2023-10-31T13:09:55;5.93;;;5.00;;
18162;SDS011;9206;50.994;4.538;2023-10-31T13:12:43;5.80;;;5.33;;
18162;SDS011;9206;50.994;4.538;2023-10-31T13:15:34;6.27;;;4.93;;
18162;SDS011;9206;50.994;4.538;2023-10-31T13:18:21;6.33;;;4.57;;
18162;SDS011;9206;50.994;4.538;2023-10-31T13:21:11;6.60;;;4.73;;
18162;SDS011;9206;50.994;4.538;2023-10-31T13:24:07;5.13;;;4.67;;
18162;SDS011;9206;50.994;4.538;2023-10-31T13:26:55;4.73;;;4.33;;
18162;SDS011;9206;50.994;4.538;2023-10-31T13:29:53;4.80;;;4.43;;
18162;SDS011;9206;50.994;4.538;2023-10-31T13:32:41;4.07;;;3.70;;
18162;SDS011;9206;50.994;4.538;2023-10-31T13:35:31;4.20;;;3.73;;
18162;SDS011;9206;50.994;4.538;2023-10-31T13:38:25;4.00;;;3.70;;
18162;SDS011;9206;50.994;4.538;2023-10-31T13:41:19;4.43;;;3.80;;
18162;SDS011;9206;50.994;4.538;2023-10-31T13:44:14;5.10;;;3.40;;
18162;SDS011;9206;50.994;4.538;2023-10-31T13:47:05;3.50;;;3.30;;
18162;SDS011;9206;50.994;4.538;2023-10-31T13:49:54;3.00;;;2.80;;
18162;SDS011;9206;50.994;4.538;2023-10-31T13:52:42;3.10;;;2.90;;
18162;SDS011;9206;50.994;4.538;2023-10-31T13:55:30;3.90;;;3.60;;
18162;SDS011;9206;50.994;4.538;2023-10-31T13:58:24;3.63;;;3.37;;
18162;SDS011;9206;50.994;4.538;2023-10-31T14:01:18;3.77;;;3.47;;
18162;SDS011;9206;50.994;4.538;2023-10-31T14:07:06;3.60;;;3.30;;
18162;SDS011;9206;50.994;4.538;2023-10-31T14:09:54;4.30;;;3.83;;
18162;SDS011;9206;50.994;4.538;2023-10-31T14:12:48;5.73;;;4.07;;
18162;SDS011;9206;50.994;4.538;2023-10-31T14:18:33;6.90;;;3.83;;
18162;SDS011;9206;50.994;4.538;2023-10-31T14:21:26;4.90;;;3.90;;
18162;SDS011;9206;50.994;4.538;2023-10-31T14:24:14;5.53;;;3.63;;
18162;SDS011;9206;50.994;4.538;2023-10-31T14:29:53;3.50;;;3.20;;
18162;SDS011;9206;50.994;4.538;2023-10-31T14:32:48;7.03;;;4.37;;
18162;SDS011;9206;50.994;4.538;2023-10-31T14:35:38;5.03;;;3.80;;
18162;SDS011;9206;50.994;4.538;2023-10-31T14:41:32;4.30;;;3.10;;
18162;SDS011;9206;50.994;4.538;2023-10-31T14:44:19;3.40;;;2.93;;
18162;SDS011;9206;50.994;4.538;2023-10-31T14:50:05;5.10;;;3.37;;
18162;SDS011;9206;50.994;4.538;2023-10-31T14:52:53;3.23;;;2.77;;
18162;SDS011;9206;50.994;4.538;2023-10-31T15:01:40;4.00;;;3.30;;
18162;SDS011;9206;50.994;4.538;2023-10-31T15:04:40;7.40;;;3.30;;
18162;SDS011;9206;50.994;4.538;2023-10-31T15:07:31;4.63;;;3.00;;
18162;SDS011;9206;50.994;4.538;2023-10-31T15:10:24;3.97;;;3.67;;
18162;SDS011;9206;50.994;4.538;2023-10-31T15:13:13;4.17;;;3.17;;
18162;SDS011;9206;50.994;4.538;2023-10-31T15:16:01;6.97;;;3.47;;
18162;SDS011;9206;50.994;4.538;2023-10-31T15:18:49;4.90;;;3.50;;
18162;SDS011;9206;50.994;4.538;2023-10-31T15:21:36;4.83;;;3.60;;
18162;SDS011;9206;50.994;4.538;2023-10-31T15:24:25;4.73;;;3.50;;
18162;SDS011;9206;50.994;4.538;2023-10-31T15:27:15;6.03;;;3.47;;
18162;SDS011;9206;50.994;4.538;2023-10-31T15:30:05;9.57;;;3.30;;
18162;SDS011;9206;50.994;4.538;2023-10-31T15:32:55;4.43;;;3.40;;
18162;SDS011;9206;50.994;4.538;2023-10-31T15:35:42;7.07;;;3.70;;
18162;SDS011;9206;50.994;4.538;2023-10-31T15:38:29;4.63;;;3.73;;
18162;SDS011;9206;50.994;4.538;2023-10-31T15:41:18;17.17;;;7.30;;
18162;SDS011;9206;50.994;4.538;2023-10-31T15:44:07;7.90;;;6.43;;
18162;SDS011;9206;50.994;4.538;2023-10-31T15:46:56;18.37;;;8.80;;
18162;SDS011;9206;50.994;4.538;2023-10-31T15:49:44;7.43;;;5.80;;
18162;SDS011;9206;50.994;4.538;2023-10-31T15:52:31;6.97;;;6.33;;
18162;SDS011;9206;50.994;4.538;2023-10-31T15:55:24;5.73;;;4.37;;
18162;SDS011;9206;50.994;4.538;2023-10-31T15:58:13;10.50;;;4.00;;
18162;SDS011;9206;50.994;4.538;2023-10-31T16:01:00;6.77;;;4.63;;
18162;SDS011;9206;50.994;4.538;2023-10-31T16:03:48;5.37;;;3.63;;
18162;SDS011;9206;50.994;4.538;2023-10-31T16:06:36;7.33;;;3.87;;
18162;SDS011;9206;50.994;4.538;2023-10-31T16:09:23;10.70;;;6.83;;
18162;SDS011;9206;50.994;4.538;2023-10-31T16:12:11;5.87;;;5.30;;
18162;SDS011;9206;50.994;4.538;2023-10-31T16:15:01;7.50;;;4.37;;
18162;SDS011;9206;50.994;4.538;2023-10-31T16:17:49;10.17;;;4.37;;
18162;SDS011;9206;50.994;4.538;2023-10-31T16:20:36;13.73;;;4.57;;
18162;SDS011;9206;50.994;4.538;2023-10-31T16:23:25;5.07;;;4.50;;
18162;SDS011;9206;50.994;4.538;2023-10-31T16:26:13;9.00;;;5.10;;
18162;SDS011;9206;50.994;4.538;2023-10-31T16:29:01;14.67;;;5.17;;
18162;SDS011;9206;50.994;4.538;2023-10-31T16:31:50;9.63;;;5.47;;
18162;SDS011;9206;50.994;4.538;2023-10-31T16:34:38;10.77;;;5.70;;
18162;SDS011;9206;50.994;4.538;2023-10-31T16:37:28;12.87;;;5.87;;
18162;SDS011;9206;50.994;4.538;2023-10-31T16:40:17;12.20;;;5.73;;
18162;SDS011;9206;50.994;4.538;2023-10-31T16:43:04;10.17;;;6.20;;
18162;SDS011;9206;50.994;4.538;2023-10-31T16:45:51;7.87;;;5.60;;
18162;SDS011;9206;50.994;4.538;2023-10-31T16:48:42;11.63;;;6.43;;
18162;SDS011;9206;50.994;4.538;2023-10-31T16:51:30;13.13;;;6.83;;
18162;SDS011;9206;50.994;4.538;2023-10-31T16:54:20;8.87;;;5.73;;
18162;SDS011;9206;50.994;4.538;2023-10-31T16:57:08;10.03;;;6.97;;
18162;SDS011;9206;50.994;4.538;2023-10-31T16:59:55;11.57;;;5.87;;
18162;SDS011;9206;50.994;4.538;2023-10-31T17:02:43;8.73;;;5.63;;
18162;SDS011;9206;50.994;4.538;2023-10-31T17:05:32;11.63;;;6.63;;
18162;SDS011;9206;50.994;4.538;2023-10-31T17:08:21;12.07;;;6.37;;
18162;SDS011;9206;50.994;4.538;2023-10-31T17:11:08;16.17;;;6.00;;
18162;SDS011;9206;50.994;4.538;2023-10-31T17:13:57;9.57;;;6.03;;
18162;SDS011;9206;50.994;4.538;2023-10-31T17:16:45;9.53;;;5.60;;
18162;SDS011;9206;50.994;4.538;2023-10-31T17:19:33;14.47;;;6.03;;
18162;SDS011;9206;50.994;4.538;2023-10-31T17:22:21;10.70;;;6.23;;
18162;SDS011;9206;50.994;4.538;2023-10-31T17:25:10;14.03;;;6.63;;
18162;SDS011;9206;50.994;4.538;2023-10-31T17:28:04;10.63;;;6.20;;
18162;SDS011;9206;50.994;4.538;2023-10-31T17:30:51;14.40;;;6.27;;
18162;SDS011;9206;50.994;4.538;2023-10-31T17:33:39;10.23;;;6.40;;
18162;SDS011;9206;50.994;4.538;2023-10-31T17:36:29;8.87;;;6.07;;
18162;SDS011;9206;50.994;4.538;2023-10-31T17:39:19;13.27;;;5.97;;
18162;SDS011;9206;50.994;4.538;2023-10-31T17:42:06;10.30;;;5.23;;
18162;SDS011;9206;50.994;4.538;2023-10-31T17:44:53;9.77;;;5.30;;
18162;SDS011;9206;50.994;4.538;2023-10-31T17:47:42;10.30;;;5.20;;
18162;SDS011;9206;50.994;4.538;2023-10-31T17:50:29;12.67;;;5.37;;
18162;SDS011;9206;50.994;4.538;2023-10-31T17:53:18;11.20;;;5.27;;
18162;SDS011;9206;50.994;4.538;2023-10-31T17:56:07;13.10;;;5.27;;
18162;SDS011;9206;50.994;4.538;2023-10-31T17:58:54;8.30;;;5.23;;
18162;SDS011;9206;50.994;4.538;2023-10-31T18:01:42;11.27;;;5.13;;
18162;SDS011;9206;50.994;4.538;2023-10-31T18:04:30;9.23;;;5.20;;
18162;SDS011;9206;50.994;4.538;2023-10-31T18:07:17;9.73;;;5.60;;
18162;SDS011;9206;50.994;4.538;2023-10-31T18:10:05;11.27;;;4.47;;
18162;SDS011;9206;50.994;4.538;2023-10-31T18:12:55;12.93;;;5.10;;
18162;SDS011;9206;50.994;4.538;2023-10-31T18:15:42;11.90;;;4.83;;
18162;SDS011;9206;50.994;4.538;2023-10-31T18:18:30;8.67;;;4.50;;